sensor_id;sensor_type;location;lat;lon;timestamp;temperature;humidity
12329;DHT22;6230;52.390;10.256;2023-03-04T00:01:36;7.10;69.00
12329;DHT22;6230;52.390;10.256;2023-03-04T00:04:01;7.10;69.00
12329;DHT22;6230;52.390;10.256;2023-03-04T00:06:27;7.10;69.00
12329;DHT22;6230;52.390;10.256;2023-03-04T00:08:52;7.10;69.00
12329;DHT22;6230;52.390;10.256;2023-03-04T00:11:18;7.10;69.10
12329;DHT22;6230;52.390;10.256;2023-03-04T00:13:43;7.10;69.00
12329;DHT22;6230;52.390;10.256;2023-03-04T00:16:09;7.10;69.00
12329;DHT22;6230;52.390;10.256;2023-03-04T00:18:34;7.10;69.00
12329;DHT22;6230;52.390;10.256;2023-03-04T00:21:00;7.10;69.00
12329;DHT22;6230;52.390;10.256;2023-03-04T00:23:26;7.20;69.00
12329;DHT22;6230;52.390;10.256;2023-03-04T00:25:51;7.20;69.00
12329;DHT22;6230;52.390;10.256;2023-03-04T00:28:17;7.20;69.10
12329;DHT22;6230;52.390;10.256;2023-03-04T00:30:42;7.20;69.10
12329;DHT22;6230;52.390;10.256;2023-03-04T00:33:08;7.20;69.10
12329;DHT22;6230;52.390;10.256;2023-03-04T00:35:37;7.20;69.10
12329;DHT22;6230;52.390;10.256;2023-03-04T00:38:02;7.20;69.10
12329;DHT22;6230;52.390;10.256;2023-03-04T00:40:28;7.20;69.10
12329;DHT22;6230;52.390;10.256;2023-03-04T00:42:53;7.20;69.10
12329;DHT22;6230;52.390;10.256;2023-03-04T00:45:19;7.30;69.10
12329;DHT22;6230;52.390;10.256;2023-03-04T00:47:44;7.30;69.10
12329;DHT22;6230;52.390;10.256;2023-03-04T00:50:10;7.30;69.10
12329;DHT22;6230;52.390;10.256;2023-03-04T00:52:36;7.30;69.00
12329;DHT22;6230;52.390;10.256;2023-03-04T00:55:01;7.30;69.00
12329;DHT22;6230;52.390;10.256;2023-03-04T00:57:27;7.30;69.00
12329;DHT22;6230;52.390;10.256;2023-03-04T00:59:52;7.40;69.00
12329;DHT22;6230;52.390;10.256;2023-03-04T01:02:18;7.40;69.00
12329;DHT22;6230;52.390;10.256;2023-03-04T01:04:44;7.40;69.00
12329;DHT22;6230;52.390;10.256;2023-03-04T01:07:09;7.40;69.00
12329;DHT22;6230;52.390;10.256;2023-03-04T01:09:35;7.40;69.00
12329;DHT22;6230;52.390;10.256;2023-03-04T01:12:00;7.40;69.00
12329;DHT22;6230;52.390;10.256;2023-03-04T01:14:26;7.40;69.00
12329;DHT22;6230;52.390;10.256;2023-03-04T01:16:51;7.40;69.10
12329;DHT22;6230;52.390;10.256;2023-03-04T01:19:17;7.40;69.20
12329;DHT22;6230;52.390;10.256;2023-03-04T01:21:43;7.40;69.10
12329;DHT22;6230;52.390;10.256;2023-03-04T01:24:08;7.40;69.20
12329;DHT22;6230;52.390;10.256;2023-03-04T01:26:34;7.40;69.10
12329;DHT22;6230;52.390;10.256;2023-03-04T01:29:02;7.40;69.10
12329;DHT22;6230;52.390;10.256;2023-03-04T01:31:27;7.40;69.10
12329;DHT22;6230;52.390;10.256;2023-03-04T01:33:53;7.40;69.10
12329;DHT22;6230;52.390;10.256;2023-03-04T01:36:18;7.50;69.10
12329;DHT22;6230;52.390;10.256;2023-03-04T01:38:44;7.50;69.10
12329;DHT22;6230;52.390;10.256;2023-03-04T01:41:11;7.50;69.10
12329;DHT22;6230;52.390;10.256;2023-03-04T01:43:37;7.50;69.10
12329;DHT22;6230;52.390;10.256;2023-03-04T01:46:03;7.50;69.20
12329;DHT22;6230;52.390;10.256;2023-03-04T01:48:36;7.50;69.20
12329;DHT22;6230;52.390;10.256;2023-03-04T01:51:03;7.50;69.20
12329;DHT22;6230;52.390;10.256;2023-03-04T01:53:31;7.50;69.20
12329;DHT22;6230;52.390;10.256;2023-03-04T01:56:02;7.50;69.20
12329;DHT22;6230;52.390;10.256;2023-03-04T01:58:31;7.50;69.20
12329;DHT22;6230;52.390;10.256;2023-03-04T02:00:57;7.50;69.30
12329;DHT22;6230;52.390;10.256;2023-03-04T02:03:23;7.50;69.20
12329;DHT22;6230;52.390;10.256;2023-03-04T02:05:51;7.50;69.20
12329;DHT22;6230;52.390;10.256;2023-03-04T02:08:19;7.60;69.30
12329;DHT22;6230;52.390;10.256;2023-03-04T02:10:46;7.50;69.30
12329;DHT22;6230;52.390;10.256;2023-03-04T02:13:13;7.50;69.30
12329;DHT22;6230;52.390;10.256;2023-03-04T02:15:38;7.60;69.30
12329;DHT22;6230;52.390;10.256;2023-03-04T02:18:19;7.60;69.30
12329;DHT22;6230;52.390;10.256;2023-03-04T02:23:21;7.60;69.30
12329;DHT22;6230;52.390;10.256;2023-03-04T02:28:36;7.60;69.30
12329;DHT22;6230;52.390;10.256;2023-03-04T02:31:02;7.60;69.20
12329;DHT22;6230;52.390;10.256;2023-03-04T02:33:28;7.60;69.20
12329;DHT22;6230;52.390;10.256;2023-03-04T02:35:53;7.60;69.30
12329;DHT22;6230;52.390;10.256;2023-03-04T02:38:19;7.60;69.40
12329;DHT22;6230;52.390;10.256;2023-03-04T02:40:47;7.60;69.40
12329;DHT22;6230;52.390;10.256;2023-03-04T02:43:14;7.60;69.40
12329;DHT22;6230;52.390;10.256;2023-03-04T02:48:06;7.60;69.50
12329;DHT22;6230;52.390;10.256;2023-03-04T02:50:35;7.60;69.40
12329;DHT22;6230;52.390;10.256;2023-03-04T02:53:02;7.60;69.40
12329;DHT22;6230;52.390;10.256;2023-03-04T02:55:27;7.70;69.50
12329;DHT22;6230;52.390;10.256;2023-03-04T02:57:53;7.70;69.50
12329;DHT22;6230;52.390;10.256;2023-03-04T03:00:19;7.70;69.60
12329;DHT22;6230;52.390;10.256;2023-03-04T03:02:45;7.70;69.70
12329;DHT22;6230;52.390;10.256;2023-03-04T03:05:11;7.70;69.70
12329;DHT22;6230;52.390;10.256;2023-03-04T03:07:37;7.70;69.60
12329;DHT22;6230;52.390;10.256;2023-03-04T03:10:03;7.70;69.70
12329;DHT22;6230;52.390;10.256;2023-03-04T03:12:28;7.70;69.60
12329;DHT22;6230;52.390;10.256;2023-03-04T03:14:54;7.70;69.70
12329;DHT22;6230;52.390;10.256;2023-03-04T03:17:19;7.70;69.70
12329;DHT22;6230;52.390;10.256;2023-03-04T03:19:45;7.70;69.70
12329;DHT22;6230;52.390;10.256;2023-03-04T03:22:10;7.70;69.80
12329;DHT22;6230;52.390;10.256;2023-03-04T03:24:36;7.70;69.80
12329;DHT22;6230;52.390;10.256;2023-03-04T03:27:01;7.70;69.80
12329;DHT22;6230;52.390;10.256;2023-03-04T03:29:27;7.70;69.90
12329;DHT22;6230;52.390;10.256;2023-03-04T03:31:52;7.70;69.90
12329;DHT22;6230;52.390;10.256;2023-03-04T03:34:18;7.70;70.70
12329;DHT22;6230;52.390;10.256;2023-03-04T03:36:43;7.70;70.00
12329;DHT22;6230;52.390;10.256;2023-03-04T03:39:09;7.70;70.10
12329;DHT22;6230;52.390;10.256;2023-03-04T03:41:35;7.70;70.10
12329;DHT22;6230;52.390;10.256;2023-03-04T03:44:00;7.70;70.10
12329;DHT22;6230;52.390;10.256;2023-03-04T03:46:26;7.70;71.00
12329;DHT22;6230;52.390;10.256;2023-03-04T03:48:51;7.70;70.30
12329;DHT22;6230;52.390;10.256;2023-03-04T03:51:17;7.70;70.30
12329;DHT22;6230;52.390;10.256;2023-03-04T03:53:42;7.70;70.30
12329;DHT22;6230;52.390;10.256;2023-03-04T03:56:08;7.80;70.40
12329;DHT22;6230;52.390;10.256;2023-03-04T03:58:34;7.80;70.40
12329;DHT22;6230;52.390;10.256;2023-03-04T04:00:59;7.80;70.40
12329;DHT22;6230;52.390;10.256;2023-03-04T04:03:25;7.80;70.40
12329;DHT22;6230;52.390;10.256;2023-03-04T04:05:50;7.80;70.40
12329;DHT22;6230;52.390;10.256;2023-03-04T04:08:16;7.80;70.50
12329;DHT22;6230;52.390;10.256;2023-03-04T04:10:42;7.80;70.50
12329;DHT22;6230;52.390;10.256;2023-03-04T04:13:08;7.80;70.50
12329;DHT22;6230;52.390;10.256;2023-03-04T04:15:34;7.80;70.50
12329;DHT22;6230;52.390;10.256;2023-03-04T04:18:01;7.80;70.60
12329;DHT22;6230;52.390;10.256;2023-03-04T04:20:27;7.80;70.60
12329;DHT22;6230;52.390;10.256;2023-03-04T04:22:52;7.80;70.70
12329;DHT22;6230;52.390;10.256;2023-03-04T04:25:18;7.80;70.70
12329;DHT22;6230;52.390;10.256;2023-03-04T04:27:43;7.80;70.70
12329;DHT22;6230;52.390;10.256;2023-03-04T04:30:09;7.80;70.80
12329;DHT22;6230;52.390;10.256;2023-03-04T04:32:35;7.80;70.80
12329;DHT22;6230;52.390;10.256;2023-03-04T04:35:00;7.80;70.80
12329;DHT22;6230;52.390;10.256;2023-03-04T04:37:26;7.80;70.90
12329;DHT22;6230;52.390;10.256;2023-03-04T04:39:52;7.80;71.00
12329;DHT22;6230;52.390;10.256;2023-03-04T04:42:20;7.80;71.10
12329;DHT22;6230;52.390;10.256;2023-03-04T04:44:45;7.80;71.10
12329;DHT22;6230;52.390;10.256;2023-03-04T04:47:11;7.80;71.20
12329;DHT22;6230;52.390;10.256;2023-03-04T04:49:40;7.70;71.20
12329;DHT22;6230;52.390;10.256;2023-03-04T04:52:05;7.80;71.30
12329;DHT22;6230;52.390;10.256;2023-03-04T04:54:31;7.70;71.30
12329;DHT22;6230;52.390;10.256;2023-03-04T04:56:56;7.70;71.40
12329;DHT22;6230;52.390;10.256;2023-03-04T04:59:22;7.70;71.50
12329;DHT22;6230;52.390;10.256;2023-03-04T05:01:48;7.70;71.50
12329;DHT22;6230;52.390;10.256;2023-03-04T05:04:13;7.70;71.60
12329;DHT22;6230;52.390;10.256;2023-03-04T05:06:39;7.70;71.70
12329;DHT22;6230;52.390;10.256;2023-03-04T05:09:04;7.70;71.70
12329;DHT22;6230;52.390;10.256;2023-03-04T05:11:30;7.70;71.80
12329;DHT22;6230;52.390;10.256;2023-03-04T05:13:56;7.60;71.90
12329;DHT22;6230;52.390;10.256;2023-03-04T05:16:21;7.60;72.00
12329;DHT22;6230;52.390;10.256;2023-03-04T05:18:47;7.60;72.10
12329;DHT22;6230;52.390;10.256;2023-03-04T05:21:13;7.60;72.10
12329;DHT22;6230;52.390;10.256;2023-03-04T05:23:40;7.60;72.10
12329;DHT22;6230;52.390;10.256;2023-03-04T05:26:07;7.60;73.00
12329;DHT22;6230;52.390;10.256;2023-03-04T05:28:33;7.60;72.20
12329;DHT22;6230;52.390;10.256;2023-03-04T05:30:59;7.60;72.30
12329;DHT22;6230;52.390;10.256;2023-03-04T05:33:24;7.60;72.30
12329;DHT22;6230;52.390;10.256;2023-03-04T05:35:50;7.60;72.40
12329;DHT22;6230;52.390;10.256;2023-03-04T05:38:18;7.60;72.40
12329;DHT22;6230;52.390;10.256;2023-03-04T05:40:44;7.60;72.50
12329;DHT22;6230;52.390;10.256;2023-03-04T05:43:10;7.60;72.60
12329;DHT22;6230;52.390;10.256;2023-03-04T05:45:36;7.60;72.70
12329;DHT22;6230;52.390;10.256;2023-03-04T05:48:03;7.50;72.70
12329;DHT22;6230;52.390;10.256;2023-03-04T05:50:29;7.60;73.50
12329;DHT22;6230;52.390;10.256;2023-03-04T05:52:54;7.60;72.70
12329;DHT22;6230;52.390;10.256;2023-03-04T05:55:20;7.60;72.80
12329;DHT22;6230;52.390;10.256;2023-03-04T05:57:46;7.60;72.90
12329;DHT22;6230;52.390;10.256;2023-03-04T06:00:12;7.60;72.90
12329;DHT22;6230;52.390;10.256;2023-03-04T06:02:39;7.50;73.00
12329;DHT22;6230;52.390;10.256;2023-03-04T06:05:06;7.50;73.00
12329;DHT22;6230;52.390;10.256;2023-03-04T06:07:32;7.50;73.20
12329;DHT22;6230;52.390;10.256;2023-03-04T06:09:57;7.50;73.20
12329;DHT22;6230;52.390;10.256;2023-03-04T06:12:23;7.50;73.40
12329;DHT22;6230;52.390;10.256;2023-03-04T06:14:48;7.50;73.40
12329;DHT22;6230;52.390;10.256;2023-03-04T06:17:14;7.50;73.40
12329;DHT22;6230;52.390;10.256;2023-03-04T06:19:40;7.50;73.50
12329;DHT22;6230;52.390;10.256;2023-03-04T06:22:08;7.50;73.50
12329;DHT22;6230;52.390;10.256;2023-03-04T06:24:34;7.50;73.50
12329;DHT22;6230;52.390;10.256;2023-03-04T06:27:00;7.50;73.60
12329;DHT22;6230;52.390;10.256;2023-03-04T06:29:25;7.50;73.60
12329;DHT22;6230;52.390;10.256;2023-03-04T06:31:51;7.50;73.60
12329;DHT22;6230;52.390;10.256;2023-03-04T06:34:17;7.50;73.70
12329;DHT22;6230;52.390;10.256;2023-03-04T06:36:42;7.50;73.80
12329;DHT22;6230;52.390;10.256;2023-03-04T06:39:08;7.50;73.70
12329;DHT22;6230;52.390;10.256;2023-03-04T06:41:34;7.50;73.80
12329;DHT22;6230;52.390;10.256;2023-03-04T06:44:00;7.60;73.90
12329;DHT22;6230;52.390;10.256;2023-03-04T06:46:25;7.50;73.90
12329;DHT22;6230;52.390;10.256;2023-03-04T06:48:51;7.50;74.00
12329;DHT22;6230;52.390;10.256;2023-03-04T06:51:17;7.60;74.10
12329;DHT22;6230;52.390;10.256;2023-03-04T06:53:43;7.60;74.10
12329;DHT22;6230;52.390;10.256;2023-03-04T06:56:10;7.60;74.10
12329;DHT22;6230;52.390;10.256;2023-03-04T06:58:36;7.60;74.20
12329;DHT22;6230;52.390;10.256;2023-03-04T07:01:28;7.60;74.20
12329;DHT22;6230;52.390;10.256;2023-03-04T07:03:55;7.60;74.40
12329;DHT22;6230;52.390;10.256;2023-03-04T07:06:23;7.60;74.20
12329;DHT22;6230;52.390;10.256;2023-03-04T07:08:49;7.60;75.00
12329;DHT22;6230;52.390;10.256;2023-03-04T07:11:16;7.60;74.30
12329;DHT22;6230;52.390;10.256;2023-03-04T07:13:42;7.60;74.40
12329;DHT22;6230;52.390;10.256;2023-03-04T07:16:10;7.60;74.50
12329;DHT22;6230;52.390;10.256;2023-03-04T07:18:36;7.60;74.50
12329;DHT22;6230;52.390;10.256;2023-03-04T07:21:02;7.60;74.60
12329;DHT22;6230;52.390;10.256;2023-03-04T07:23:28;7.60;74.60
12329;DHT22;6230;52.390;10.256;2023-03-04T07:25:53;7.60;74.70
12329;DHT22;6230;52.390;10.256;2023-03-04T07:28:19;7.60;74.70
12329;DHT22;6230;52.390;10.256;2023-03-04T07:30:45;7.60;74.70
12329;DHT22;6230;52.390;10.256;2023-03-04T07:33:11;7.60;74.70
12329;DHT22;6230;52.390;10.256;2023-03-04T07:35:37;7.60;74.80
12329;DHT22;6230;52.390;10.256;2023-03-04T07:38:03;7.70;74.90
12329;DHT22;6230;52.390;10.256;2023-03-04T07:40:28;7.70;74.90
12329;DHT22;6230;52.390;10.256;2023-03-04T07:42:55;7.70;75.00
12329;DHT22;6230;52.390;10.256;2023-03-04T07:45:21;7.70;75.10
12329;DHT22;6230;52.390;10.256;2023-03-04T07:47:47;7.60;75.10
12329;DHT22;6230;52.390;10.256;2023-03-04T07:50:13;7.70;75.20
12329;DHT22;6230;52.390;10.256;2023-03-04T07:52:40;7.70;75.30
12329;DHT22;6230;52.390;10.256;2023-03-04T07:55:08;7.70;75.30
12329;DHT22;6230;52.390;10.256;2023-03-04T07:57:33;7.70;75.30
12329;DHT22;6230;52.390;10.256;2023-03-04T07:59:59;7.70;75.40
12329;DHT22;6230;52.390;10.256;2023-03-04T08:02:25;7.70;75.60
12329;DHT22;6230;52.390;10.256;2023-03-04T08:04:50;7.70;75.50
12329;DHT22;6230;52.390;10.256;2023-03-04T08:07:16;7.70;75.50
12329;DHT22;6230;52.390;10.256;2023-03-04T08:09:42;7.80;75.60
12329;DHT22;6230;52.390;10.256;2023-03-04T08:12:07;7.80;75.60
12329;DHT22;6230;52.390;10.256;2023-03-04T08:14:33;7.80;75.60
12329;DHT22;6230;52.390;10.256;2023-03-04T08:16:59;7.80;75.80
12329;DHT22;6230;52.390;10.256;2023-03-04T08:19:24;7.80;75.80
12329;DHT22;6230;52.390;10.256;2023-03-04T08:21:50;7.80;75.80
12329;DHT22;6230;52.390;10.256;2023-03-04T08:24:15;7.90;75.90
12329;DHT22;6230;52.390;10.256;2023-03-04T08:26:44;7.90;76.00
12329;DHT22;6230;52.390;10.256;2023-03-04T08:29:14;7.90;76.00
12329;DHT22;6230;52.390;10.256;2023-03-04T08:31:41;8.00;76.00
12329;DHT22;6230;52.390;10.256;2023-03-04T08:34:07;8.10;76.00
12329;DHT22;6230;52.390;10.256;2023-03-04T08:36:35;8.10;76.00
12329;DHT22;6230;52.390;10.256;2023-03-04T08:39:01;8.20;75.90
12329;DHT22;6230;52.390;10.256;2023-03-04T08:41:27;8.20;75.90
12329;DHT22;6230;52.390;10.256;2023-03-04T08:43:53;8.30;75.90
12329;DHT22;6230;52.390;10.256;2023-03-04T08:46:19;8.30;75.80
12329;DHT22;6230;52.390;10.256;2023-03-04T08:48:44;8.30;75.70
12329;DHT22;6230;52.390;10.256;2023-03-04T08:51:12;8.40;75.70
12329;DHT22;6230;52.390;10.256;2023-03-04T08:53:38;8.40;75.60
12329;DHT22;6230;52.390;10.256;2023-03-04T08:56:05;8.50;75.60
12329;DHT22;6230;52.390;10.256;2023-03-04T08:58:31;8.50;75.40
12329;DHT22;6230;52.390;10.256;2023-03-04T09:00:58;8.50;75.20
12329;DHT22;6230;52.390;10.256;2023-03-04T09:03:24;8.60;75.20
12329;DHT22;6230;52.390;10.256;2023-03-04T09:05:50;8.60;75.10
12329;DHT22;6230;52.390;10.256;2023-03-04T09:08:15;8.60;75.10
12329;DHT22;6230;52.390;10.256;2023-03-04T09:10:41;8.60;75.10
12329;DHT22;6230;52.390;10.256;2023-03-04T09:13:07;8.60;75.00
12329;DHT22;6230;52.390;10.256;2023-03-04T09:15:35;8.60;75.00
12329;DHT22;6230;52.390;10.256;2023-03-04T09:18:02;8.60;75.00
12329;DHT22;6230;52.390;10.256;2023-03-04T09:20:29;8.60;75.00
12329;DHT22;6230;52.390;10.256;2023-03-04T09:22:55;8.60;75.00
12329;DHT22;6230;52.390;10.256;2023-03-04T09:25:21;8.70;75.00
12329;DHT22;6230;52.390;10.256;2023-03-04T09:27:46;8.60;74.90
12329;DHT22;6230;52.390;10.256;2023-03-04T09:30:12;8.70;75.00
12329;DHT22;6230;52.390;10.256;2023-03-04T09:32:38;8.70;74.90
12329;DHT22;6230;52.390;10.256;2023-03-04T09:35:05;8.70;75.00
12329;DHT22;6230;52.390;10.256;2023-03-04T09:37:30;8.70;75.00
12329;DHT22;6230;52.390;10.256;2023-03-04T09:39:56;8.70;74.90
12329;DHT22;6230;52.390;10.256;2023-03-04T09:42:34;8.80;74.90
12329;DHT22;6230;52.390;10.256;2023-03-04T09:45:01;8.80;74.90
12329;DHT22;6230;52.390;10.256;2023-03-04T09:47:28;8.80;74.80
12329;DHT22;6230;52.390;10.256;2023-03-04T09:49:57;8.80;74.80
12329;DHT22;6230;52.390;10.256;2023-03-04T10:03:29;8.80;75.00
12329;DHT22;6230;52.390;10.256;2023-03-04T10:06:03;8.70;75.10
12329;DHT22;6230;52.390;10.256;2023-03-04T10:11:05;8.70;75.10
12329;DHT22;6230;52.390;10.256;2023-03-04T10:13:54;8.70;75.20
12329;DHT22;6230;52.390;10.256;2023-03-04T10:16:25;8.70;75.30
12329;DHT22;6230;52.390;10.256;2023-03-04T10:21:41;8.70;75.40
12329;DHT22;6230;52.390;10.256;2023-03-04T10:24:11;8.70;75.40
12329;DHT22;6230;52.390;10.256;2023-03-04T10:26:37;8.70;75.40
12329;DHT22;6230;52.390;10.256;2023-03-04T10:29:04;8.80;75.50
12329;DHT22;6230;52.390;10.256;2023-03-04T10:31:34;8.80;75.50
12329;DHT22;6230;52.390;10.256;2023-03-04T10:34:04;8.80;75.60
12329;DHT22;6230;52.390;10.256;2023-03-04T10:39:24;8.80;75.60
12329;DHT22;6230;52.390;10.256;2023-03-04T10:41:56;8.80;75.50
12329;DHT22;6230;52.390;10.256;2023-03-04T10:44:23;8.90;75.30
12329;DHT22;6230;52.390;10.256;2023-03-04T10:46:48;8.90;75.20
12329;DHT22;6230;52.390;10.256;2023-03-04T10:49:18;9.00;75.20
12329;DHT22;6230;52.390;10.256;2023-03-04T10:51:53;9.00;75.10
12329;DHT22;6230;52.390;10.256;2023-03-04T10:54:30;9.10;75.00
12329;DHT22;6230;52.390;10.256;2023-03-04T10:57:19;9.10;74.70
12329;DHT22;6230;52.390;10.256;2023-03-04T10:59:55;9.20;74.50
12329;DHT22;6230;52.390;10.256;2023-03-04T11:02:27;9.20;74.30
12329;DHT22;6230;52.390;10.256;2023-03-04T11:05:19;9.20;74.30
12329;DHT22;6230;52.390;10.256;2023-03-04T11:07:49;9.20;74.20
12329;DHT22;6230;52.390;10.256;2023-03-04T11:12:54;9.10;74.20
12329;DHT22;6230;52.390;10.256;2023-03-04T11:15:22;9.10;74.30
12329;DHT22;6230;52.390;10.256;2023-03-04T11:17:54;9.00;74.30
12329;DHT22;6230;52.390;10.256;2023-03-04T11:20:33;9.00;74.40
12329;DHT22;6230;52.390;10.256;2023-03-04T11:23:06;9.00;74.50
12329;DHT22;6230;52.390;10.256;2023-03-04T11:25:39;9.00;74.50
12329;DHT22;6230;52.390;10.256;2023-03-04T11:28:27;9.00;74.60
12329;DHT22;6230;52.390;10.256;2023-03-04T11:30:56;9.00;74.90
12329;DHT22;6230;52.390;10.256;2023-03-04T11:36:27;9.10;75.20
12329;DHT22;6230;52.390;10.256;2023-03-04T11:38:54;9.40;75.40
12329;DHT22;6230;52.390;10.256;2023-03-04T11:43:54;9.70;75.10
12329;DHT22;6230;52.390;10.256;2023-03-04T11:54:24;11.00;73.30
12329;DHT22;6230;52.390;10.256;2023-03-04T11:57:29;11.10;72.30
12329;DHT22;6230;52.390;10.256;2023-03-04T12:03:08;11.00;71.50
12329;DHT22;6230;52.390;10.256;2023-03-04T12:05:51;10.90;71.30
12329;DHT22;6230;52.390;10.256;2023-03-04T12:09:02;10.90;71.80
12329;DHT22;6230;52.390;10.256;2023-03-04T12:11:58;11.00;71.60
12329;DHT22;6230;52.390;10.256;2023-03-04T12:14:29;11.10;71.80
12329;DHT22;6230;52.390;10.256;2023-03-04T12:17:15;11.40;71.60
12329;DHT22;6230;52.390;10.256;2023-03-04T12:22:46;11.50;69.50
12329;DHT22;6230;52.390;10.256;2023-03-04T12:25:34;11.30;69.30
12329;DHT22;6230;52.390;10.256;2023-03-04T12:34:22;10.60;69.40
12329;DHT22;6230;52.390;10.256;2023-03-04T12:36:49;10.40;69.40
12329;DHT22;6230;52.390;10.256;2023-03-04T12:39:24;10.20;69.50
12329;DHT22;6230;52.390;10.256;2023-03-04T12:44:41;10.00;69.80
12329;DHT22;6230;52.390;10.256;2023-03-04T12:47:19;10.00;70.10
12329;DHT22;6230;52.390;10.256;2023-03-04T12:49:55;10.20;70.40
12329;DHT22;6230;52.390;10.256;2023-03-04T12:52:41;10.40;69.60
12329;DHT22;6230;52.390;10.256;2023-03-04T12:55:13;10.40;68.80
12329;DHT22;6230;52.390;10.256;2023-03-04T12:57:40;10.40;68.60
12329;DHT22;6230;52.390;10.256;2023-03-04T13:00:46;10.40;68.30
12329;DHT22;6230;52.390;10.256;2023-03-04T13:16:39;10.40;68.00
12329;DHT22;6230;52.390;10.256;2023-03-04T13:28:18;10.50;67.30
12329;DHT22;6230;52.390;10.256;2023-03-04T13:44:28;9.90;68.10
12329;DHT22;6230;52.390;10.256;2023-03-04T13:46:50;9.80;68.20
12329;DHT22;6230;52.390;10.256;2023-03-04T13:49:21;9.80;68.30
12329;DHT22;6230;52.390;10.256;2023-03-04T13:51:48;9.80;68.30
12329;DHT22;6230;52.390;10.256;2023-03-04T13:54:32;9.80;68.40
12329;DHT22;6230;52.390;10.256;2023-03-04T13:57:14;9.80;69.10
12329;DHT22;6230;52.390;10.256;2023-03-04T13:59:53;9.80;68.20
12329;DHT22;6230;52.390;10.256;2023-03-04T14:02:23;9.80;68.00
12329;DHT22;6230;52.390;10.256;2023-03-04T14:07:35;9.60;67.70
12329;DHT22;6230;52.390;10.256;2023-03-04T14:10:02;9.50;67.50
12329;DHT22;6230;52.390;10.256;2023-03-04T14:12:34;9.50;67.40
12329;DHT22;6230;52.390;10.256;2023-03-04T14:15:24;9.30;67.30
12329;DHT22;6230;52.390;10.256;2023-03-04T14:18:01;9.20;67.50
12329;DHT22;6230;52.390;10.256;2023-03-04T14:20:32;9.20;67.70
12329;DHT22;6230;52.390;10.256;2023-03-04T14:23:00;9.10;67.70
12329;DHT22;6230;52.390;10.256;2023-03-04T14:25:28;9.10;67.90
12329;DHT22;6230;52.390;10.256;2023-03-04T14:30:28;9.20;68.10
12329;DHT22;6230;52.390;10.256;2023-03-04T14:32:57;9.20;68.10
12329;DHT22;6230;52.390;10.256;2023-03-04T14:35:28;9.20;68.00
12329;DHT22;6230;52.390;10.256;2023-03-04T14:40:32;9.30;67.90
12329;DHT22;6230;52.390;10.256;2023-03-04T14:43:03;9.20;67.80
12329;DHT22;6230;52.390;10.256;2023-03-04T14:45:29;9.20;67.90
12329;DHT22;6230;52.390;10.256;2023-03-04T14:48:02;9.10;67.90
12329;DHT22;6230;52.390;10.256;2023-03-04T14:50:29;9.10;68.10
12329;DHT22;6230;52.390;10.256;2023-03-04T14:53:14;9.10;68.30
12329;DHT22;6230;52.390;10.256;2023-03-04T14:55:39;9.10;68.40
12329;DHT22;6230;52.390;10.256;2023-03-04T14:58:21;9.20;68.40
12329;DHT22;6230;52.390;10.256;2023-03-04T15:00:48;9.20;68.30
12329;DHT22;6230;52.390;10.256;2023-03-04T15:03:23;9.20;68.30
12329;DHT22;6230;52.390;10.256;2023-03-04T15:05:49;9.20;68.20
12329;DHT22;6230;52.390;10.256;2023-03-04T15:08:28;9.30;68.30
12329;DHT22;6230;52.390;10.256;2023-03-04T15:11:00;9.20;68.00
12329;DHT22;6230;52.390;10.256;2023-03-04T15:13:41;9.20;67.90
12329;DHT22;6230;52.390;10.256;2023-03-04T15:16:08;9.20;68.00
12329;DHT22;6230;52.390;10.256;2023-03-04T15:18:34;9.20;67.90
12329;DHT22;6230;52.390;10.256;2023-03-04T15:21:01;9.20;67.80
12329;DHT22;6230;52.390;10.256;2023-03-04T15:23:29;9.20;67.90
12329;DHT22;6230;52.390;10.256;2023-03-04T15:26:00;9.20;67.90
12329;DHT22;6230;52.390;10.256;2023-03-04T15:28:32;9.20;67.90
12329;DHT22;6230;52.390;10.256;2023-03-04T15:30:58;9.20;67.80
12329;DHT22;6230;52.390;10.256;2023-03-04T15:33:24;9.20;67.70
12329;DHT22;6230;52.390;10.256;2023-03-04T15:35:56;9.20;67.70
12329;DHT22;6230;52.390;10.256;2023-03-04T15:38:23;9.20;67.60
12329;DHT22;6230;52.390;10.256;2023-03-04T15:40:50;9.10;67.40
12329;DHT22;6230;52.390;10.256;2023-03-04T15:43:18;9.10;67.40
12329;DHT22;6230;52.390;10.256;2023-03-04T15:45:45;9.10;67.30
12329;DHT22;6230;52.390;10.256;2023-03-04T15:48:12;9.10;67.20
12329;DHT22;6230;52.390;10.256;2023-03-04T15:50:53;9.10;67.20
12329;DHT22;6230;52.390;10.256;2023-03-04T15:53:33;9.10;67.10
12329;DHT22;6230;52.390;10.256;2023-03-04T15:56:01;9.10;67.00
12329;DHT22;6230;52.390;10.256;2023-03-04T15:58:28;9.10;67.00
12329;DHT22;6230;52.390;10.256;2023-03-04T16:00:54;9.10;66.90
12329;DHT22;6230;52.390;10.256;2023-03-04T16:03:20;9.10;66.80
12329;DHT22;6230;52.390;10.256;2023-03-04T16:05:48;9.10;66.60
12329;DHT22;6230;52.390;10.256;2023-03-04T16:08:16;9.10;66.50
12329;DHT22;6230;52.390;10.256;2023-03-04T16:10:43;9.10;66.50
12329;DHT22;6230;52.390;10.256;2023-03-04T16:13:20;9.10;66.40
12329;DHT22;6230;52.390;10.256;2023-03-04T16:15:45;9.10;66.20
12329;DHT22;6230;52.390;10.256;2023-03-04T16:18:12;9.10;66.20
12329;DHT22;6230;52.390;10.256;2023-03-04T16:20:40;9.00;65.80
12329;DHT22;6230;52.390;10.256;2023-03-04T16:23:13;8.90;65.70
12329;DHT22;6230;52.390;10.256;2023-03-04T16:25:42;8.90;65.70
12329;DHT22;6230;52.390;10.256;2023-03-04T16:28:10;8.90;65.60
12329;DHT22;6230;52.390;10.256;2023-03-04T16:30:36;8.80;65.50
12329;DHT22;6230;52.390;10.256;2023-03-04T16:33:01;8.80;65.40
12329;DHT22;6230;52.390;10.256;2023-03-04T16:35:27;8.80;65.30
12329;DHT22;6230;52.390;10.256;2023-03-04T16:37:54;8.80;65.10
12329;DHT22;6230;52.390;10.256;2023-03-04T16:40:25;8.80;65.10
12329;DHT22;6230;52.390;10.256;2023-03-04T16:42:51;8.80;65.00
12329;DHT22;6230;52.390;10.256;2023-03-04T16:45:22;8.80;65.00
12329;DHT22;6230;52.390;10.256;2023-03-04T16:47:48;8.70;64.80
12329;DHT22;6230;52.390;10.256;2023-03-04T16:50:16;8.70;64.80
12329;DHT22;6230;52.390;10.256;2023-03-04T16:52:43;8.70;64.70
12329;DHT22;6230;52.390;10.256;2023-03-04T16:55:16;8.60;64.80
12329;DHT22;6230;52.390;10.256;2023-03-04T16:57:42;8.60;64.80
12329;DHT22;6230;52.390;10.256;2023-03-04T17:00:08;8.60;64.70
12329;DHT22;6230;52.390;10.256;2023-03-04T17:02:35;8.60;64.70
12329;DHT22;6230;52.390;10.256;2023-03-04T17:05:00;8.60;64.70
12329;DHT22;6230;52.390;10.256;2023-03-04T17:07:26;8.60;64.80
12329;DHT22;6230;52.390;10.256;2023-03-04T17:09:51;8.60;64.70
12329;DHT22;6230;52.390;10.256;2023-03-04T17:12:17;8.60;64.80
12329;DHT22;6230;52.390;10.256;2023-03-04T17:14:42;8.50;64.80
12329;DHT22;6230;52.390;10.256;2023-03-04T17:17:08;8.50;64.80
12329;DHT22;6230;52.390;10.256;2023-03-04T17:19:33;8.50;64.90
12329;DHT22;6230;52.390;10.256;2023-03-04T17:22:00;8.50;65.00
12329;DHT22;6230;52.390;10.256;2023-03-04T17:24:26;8.50;65.00
12329;DHT22;6230;52.390;10.256;2023-03-04T17:26:52;8.40;65.10
12329;DHT22;6230;52.390;10.256;2023-03-04T17:29:18;8.40;65.10
12329;DHT22;6230;52.390;10.256;2023-03-04T17:31:44;8.30;65.20
12329;DHT22;6230;52.390;10.256;2023-03-04T17:34:09;8.30;65.30